Cruz Calle, Texas
Current Conditions -  °F | °C
As of 1:15 AM on Friday 19 Dec 2014 (Local Time) from KHBV Reporting Station
Overcast Overcast  
Wind Chill: 64°   Ceiling: 200
Heat Index: 64°   Visibility: 1mi
Dew Point: 64°   Wind: 3mph
Humidity: 98%   Direction: 250°WSW
Pressure: 29.99"   Gusts: NA
Location:  27.5358°N, 98.3937°W
Report Text: KHBV 190715Z AUTO 25003KT 1SM OVC002 18/18 A2999 RMK AO2 T01790175 PWINO
Loading
Personal Weather Stations






























Interactive Weather Map New forecast layout! Learn more

10-Day Weather Forecast

Advertisements
Track Severe Weather on mobile